Jupiter — WDG5267 — position and weather

sailwx.info

Track history (hours):
 
Tides and Currents Weather Stations Pressure Air Temp Water Temp Dewpoint Dewpoint Depression Visibility Wind Speed Wind Dir Waves Ship Positions

Jupiter

Owner: Planetary Positioning LLC, Saint Louis, MO. More information available from US FCC via Universal Licensing System and Coast Guard Vessel Documentation Center.

Last reported at 2017-Sep-13 08:43 UTC. Time now 2017-Sep-19 20:39 UTC.
Position N 38°58' W 076°29'.

Length 16 m.

Type: Pleasure craft. MMSI: 367554880.

Date/timePositionNaut miles runAvg speedWind from/ knotsBaromVisibWave heightAir tempDewpointWater temp
2017-Sep-13 08:43N 38°58' W 076°29'0 0.0
2017-Sep-13 08:13N 38°58' W 076°29'0 0.0
2017-Sep-13 07:49N 38°58' W 076°29'0 0.0
2017-Sep-13 07:22N 38°58' W 076°29'0 0.0
2017-Sep-13 06:55N 38°58' W 076°29'0 0.0
2017-Sep-13 06:22N 38°58' W 076°29'0 0.0
2017-Sep-13 05:46N 38°58' W 076°29'0 0.0
2017-Sep-13 05:10N 38°58' W 076°29'0 0.0
2017-Sep-13 03:52N 38°58' W 076°29'0 0.0
2017-Sep-13 03:28N 38°58' W 076°29'0 0.0
2017-Sep-13 02:58N 38°58' W 076°29'0 0.0
2017-Sep-13 02:28N 38°58' W 076°29'0 0.0
2017-Sep-13 01:55N 38°58' W 076°29'0 0.0
2017-Sep-13 01:28N 38°58' W 076°29'0 0.0
2017-Sep-13 00:52N 38°58' W 076°29'0 0.0
2017-Sep-12 23:37N 38°58' W 076°29'0 0.0
2017-Sep-12 13:04N 38°58' W 076°29'0 0.0
2017-Sep-12 12:58N 38°58' W 076°29'0 0.0
2017-Sep-12 08:37N 38°58' W 076°29'0 0.0
2017-Sep-12 08:28N 38°58' W 076°29'0 0.0
2017-Sep-12 07:52N 38°58' W 076°29'0 0.0
2017-Sep-12 07:25N 38°58' W 076°29'0 0.0
2017-Sep-12 06:52N 38°58' W 076°29'0 0.0
2017-Sep-12 06:07N 38°58' W 076°29'0 0.0
2017-Sep-12 05:55N 38°58' W 076°29'  
2017-Sep-09 14:27N 39°22' W 076°08'612.1
2017-Sep-09 13:59N 39°23' W 076°00'1 2.8
2017-Sep-09 13:30N 39°22' W 075°59'0 0.0
2017-Sep-09 13:00N 39°22' W 075°59'0 0.0
2017-Sep-09 12:30N 39°22' W 075°59'0 0.0
2017-Sep-09 11:51N 39°22' W 075°59'0 0.0
2017-Sep-09 11:30N 39°22' W 075°59'0 0.0
2017-Sep-09 10:57N 39°22' W 075°59'0 0.0
2017-Sep-09 10:30N 39°22' W 075°59'0 0.0
2017-Sep-09 10:00N 39°22' W 075°59'0 0.0
2017-Sep-09 09:30N 39°22' W 075°59'0 0.0
2017-Sep-09 08:57N 39°22' W 075°59'0 0.0
2017-Sep-09 08:30N 39°22' W 075°59'0 0.0
2017-Sep-09 08:00N 39°22' W 075°59'0 0.0
2017-Sep-09 07:30N 39°22' W 075°59'0 0.0
2017-Sep-09 07:00N 39°22' W 075°59'0 0.0
2017-Sep-09 06:30N 39°22' W 075°59'0 0.0
2017-Sep-09 05:57N 39°22' W 075°59'0 0.0
2017-Sep-09 05:30N 39°22' W 075°59'0 0.0
2017-Sep-09 05:00N 39°22' W 075°59'0 0.0
2017-Sep-09 04:30N 39°22' W 075°59'0 0.0
2017-Sep-09 04:00N 39°22' W 075°59'0 0.0
2017-Sep-09 03:30N 39°22' W 075°59'0 0.0
2017-Sep-09 03:00N 39°22' W 075°59'0 0.0
2017-Sep-09 02:27N 39°22' W 075°59'0 0.0
2017-Sep-09 02:00N 39°22' W 075°59'0 0.0
2017-Sep-09 01:27N 39°22' W 075°59'0 0.0
2017-Sep-09 01:00N 39°22' W 075°59'0 0.0
2017-Sep-09 00:30N 39°22' W 075°59'0 0.0
2017-Sep-09 00:00N 39°22' W 075°59'0 0.0
2017-Sep-08 23:30N 39°22' W 075°59'0 0.0
2017-Sep-08 23:00N 39°22' W 075°59'0 0.0
2017-Sep-08 22:30N 39°22' W 075°59'0 0.0
2017-Sep-08 22:00N 39°22' W 075°59'0 0.0
2017-Sep-08 21:30N 39°22' W 075°59'0 0.0
2017-Sep-08 21:00N 39°22' W 075°59'0 0.0
2017-Sep-08 20:21N 39°22' W 075°59'0 0.0
2017-Sep-08 20:00N 39°22' W 075°59'0 0.0
2017-Sep-08 19:21N 39°22' W 075°59'0 0.0
2017-Sep-08 18:57N 39°22' W 075°59'0 0.0
2017-Sep-08 18:30N 39°22' W 075°59'0 0.0
2017-Sep-08 18:00N 39°22' W 075°59'2 3.8
2017-Sep-08 17:27N 39°23' W 076°01'4 7.7
2017-Sep-08 16:59N 39°26' W 076°00'511.2
2017-Sep-08 16:30N 39°30' W 075°55'4 8.7
2017-Sep-08 16:00N 39°32' W 075°50'4 8.3
2017-Sep-08 15:30N 39°32' W 075°45'611.7
2017-Sep-08 15:00N 39°33' W 075°38'5 9.1
2017-Sep-08 14:30N 39°30' W 075°33'815.9
2017-Sep-08 14:00N 39°23' W 075°28'816.7
2017-Sep-08 13:30N 39°17' W 075°21'916.7
2017-Sep-08 12:58N 39°09' W 075°15'816.7
2017-Sep-08 12:29N 39°02' W 075°10'57 2.7
2017-Sep-07 14:59N 39°36' W 074°10'817.3
2017-Sep-07 14:30N 39°43' W 074°05'4816.0
2017-Sep-07 11:29N 40°31' W 074°02'613.3
2017-Sep-07 11:00N 40°38' W 074°03'5 9.5
2017-Sep-07 10:29N 40°43' W 074°02'0 0.0
2017-Sep-07 09:59N 40°43' W 074°02'0 0.0
2017-Sep-07 09:29N 40°43' W 074°02'0 0.0
2017-Sep-07 08:59N 40°43' W 074°02'0 0.0
2017-Sep-07 08:29N 40°43' W 074°02'0 0.0
2017-Sep-07 07:59N 40°43' W 074°02'0 0.0
2017-Sep-07 07:29N 40°43' W 074°02'0 0.0
2017-Sep-07 06:59N 40°43' W 074°02'0 0.0
2017-Sep-07 06:29N 40°43' W 074°02'0 0.0
2017-Sep-07 05:58N 40°43' W 074°02'0 0.0
2017-Sep-07 05:28N 40°43' W 074°02'0 0.0
2017-Sep-07 04:58N 40°43' W 074°02'0 0.0
2017-Sep-07 04:28N 40°43' W 074°02'0 0.0
2017-Sep-07 03:58N 40°43' W 074°02'0 0.0
2017-Sep-07 03:28N 40°43' W 074°02'0 0.0
2017-Sep-07 02:58N 40°43' W 074°02'0 0.0
2017-Sep-07 02:28N 40°43' W 074°02'0 0.0
2017-Sep-07 01:58N 40°43' W 074°02'0 0.0
2017-Sep-07 01:28N 40°43' W 074°02'0 0.0
2017-Sep-07 00:58N 40°43' W 074°02'0 0.0
2017-Sep-07 00:28N 40°43' W 074°02'0 0.0
2017-Sep-06 23:58N 40°43' W 074°02'0 0.0
2017-Sep-06 23:28N 40°43' W 074°02'0 0.0
2017-Sep-06 22:58N 40°43' W 074°02'0 0.0
2017-Sep-06 22:28N 40°43' W 074°02'0 0.0
2017-Sep-06 21:58N 40°43' W 074°02'0 0.0
2017-Sep-06 21:28N 40°43' W 074°02'0 0.0
2017-Sep-06 20:58N 40°43' W 074°02'0 0.0
2017-Sep-06 20:28N 40°43' W 074°02'0 0.0
2017-Sep-06 19:58N 40°43' W 074°02'0 0.0
2017-Sep-06 19:28N 40°43' W 074°02'0 0.0
2017-Sep-06 18:58N 40°43' W 074°02'0 0.0
2017-Sep-06 18:28N 40°43' W 074°02'0 0.0
2017-Sep-06 17:58N 40°43' W 074°02'0 0.1
2017-Sep-06 17:30N 40°43' W 074°02'3 6.4
2017-Sep-06 17:00N 40°43' W 073°58'67 2.4
2017-Sep-05 12:48N 41°11' W 072°38'516.2
2017-Sep-05 12:30N 41°12' W 072°31'816.7
2017-Sep-05 12:00N 41°14' W 072°21'  
Track history (hours):
 
Tides and Currents Weather Stations Pressure Air Temp Water Temp Dewpoint Dewpoint Depression Visibility Wind Speed Wind Dir Waves Ship Positions

Jupiter

Owner: Planetary Positioning LLC, Saint Louis, MO. More information available from US FCC via Universal Licensing System and Coast Guard Vessel Documentation Center.

Last reported at 2017-Sep-13 08:43 UTC. Time now 2017-Sep-19 20:39 UTC.
Position N 38°58' W 076°29'.

Length 16 m.

Type: Pleasure craft. MMSI: 367554880.

Date/timePositionNaut miles runAvg speedWind from/ knotsBaromVisibWave heightAir tempDewpointWater temp
2017-Sep-13 08:43N 38°58' W 076°29'0 0.0
2017-Sep-13 08:13N 38°58' W 076°29'0 0.0
2017-Sep-13 07:49N 38°58' W 076°29'0 0.0
2017-Sep-13 07:22N 38°58' W 076°29'0 0.0
2017-Sep-13 06:55N 38°58' W 076°29'0 0.0
2017-Sep-13 06:22N 38°58' W 076°29'0 0.0
2017-Sep-13 05:46N 38°58' W 076°29'0 0.0
2017-Sep-13 05:10N 38°58' W 076°29'0 0.0
2017-Sep-13 03:52N 38°58' W 076°29'0 0.0
2017-Sep-13 03:28N 38°58' W 076°29'0 0.0
2017-Sep-13 02:58N 38°58' W 076°29'0 0.0
2017-Sep-13 02:28N 38°58' W 076°29'0 0.0
2017-Sep-13 01:55N 38°58' W 076°29'0 0.0
2017-Sep-13 01:28N 38°58' W 076°29'0 0.0
2017-Sep-13 00:52N 38°58' W 076°29'0 0.0
2017-Sep-12 23:37N 38°58' W 076°29'0 0.0
2017-Sep-12 13:04N 38°58' W 076°29'0 0.0
2017-Sep-12 12:58N 38°58' W 076°29'0 0.0
2017-Sep-12 08:37N 38°58' W 076°29'0 0.0
2017-Sep-12 08:28N 38°58' W 076°29'0 0.0
2017-Sep-12 07:52N 38°58' W 076°29'0 0.0
2017-Sep-12 07:25N 38°58' W 076°29'0 0.0
2017-Sep-12 06:52N 38°58' W 076°29'0 0.0
2017-Sep-12 06:07N 38°58' W 076°29'0 0.0
2017-Sep-12 05:55N 38°58' W 076°29'  
2017-Sep-09 14:27N 39°22' W 076°08'612.1
2017-Sep-09 13:59N 39°23' W 076°00'1 2.8
2017-Sep-09 13:30N 39°22' W 075°59'0 0.0
2017-Sep-09 13:00N 39°22' W 075°59'0 0.0
2017-Sep-09 12:30N 39°22' W 075°59'0 0.0
2017-Sep-09 11:51N 39°22' W 075°59'0 0.0
2017-Sep-09 11:30N 39°22' W 075°59'0 0.0
2017-Sep-09 10:57N 39°22' W 075°59'0 0.0
2017-Sep-09 10:30N 39°22' W 075°59'0 0.0
2017-Sep-09 10:00N 39°22' W 075°59'0 0.0
2017-Sep-09 09:30N 39°22' W 075°59'0 0.0
2017-Sep-09 08:57N 39°22' W 075°59'0 0.0
2017-Sep-09 08:30N 39°22' W 075°59'0 0.0
2017-Sep-09 08:00N 39°22' W 075°59'0 0.0
2017-Sep-09 07:30N 39°22' W 075°59'0 0.0
2017-Sep-09 07:00N 39°22' W 075°59'0 0.0
2017-Sep-09 06:30N 39°22' W 075°59'0 0.0
2017-Sep-09 05:57N 39°22' W 075°59'0 0.0
2017-Sep-09 05:30N 39°22' W 075°59'0 0.0
2017-Sep-09 05:00N 39°22' W 075°59'0 0.0
2017-Sep-09 04:30N 39°22' W 075°59'0 0.0
2017-Sep-09 04:00N 39°22' W 075°59'0 0.0
2017-Sep-09 03:30N 39°22' W 075°59'0 0.0
2017-Sep-09 03:00N 39°22' W 075°59'0 0.0
2017-Sep-09 02:27N 39°22' W 075°59'0 0.0
2017-Sep-09 02:00N 39°22' W 075°59'0 0.0
2017-Sep-09 01:27N 39°22' W 075°59'0 0.0
2017-Sep-09 01:00N 39°22' W 075°59'0 0.0
2017-Sep-09 00:30N 39°22' W 075°59'0 0.0
2017-Sep-09 00:00N 39°22' W 075°59'0 0.0
2017-Sep-08 23:30N 39°22' W 075°59'0 0.0
2017-Sep-08 23:00N 39°22' W 075°59'0 0.0
2017-Sep-08 22:30N 39°22' W 075°59'0 0.0
2017-Sep-08 22:00N 39°22' W 075°59'0 0.0
2017-Sep-08 21:30N 39°22' W 075°59'0 0.0
2017-Sep-08 21:00N 39°22' W 075°59'0 0.0
2017-Sep-08 20:21N 39°22' W 075°59'0 0.0
2017-Sep-08 20:00N 39°22' W 075°59'0 0.0
2017-Sep-08 19:21N 39°22' W 075°59'0 0.0
2017-Sep-08 18:57N 39°22' W 075°59'0 0.0
2017-Sep-08 18:30N 39°22' W 075°59'0 0.0
2017-Sep-08 18:00N 39°22' W 075°59'2 3.8
2017-Sep-08 17:27N 39°23' W 076°01'4 7.7
2017-Sep-08 16:59N 39°26' W 076°00'511.2
2017-Sep-08 16:30N 39°30' W 075°55'4 8.7
2017-Sep-08 16:00N 39°32' W 075°50'4 8.3
2017-Sep-08 15:30N 39°32' W 075°45'611.7
2017-Sep-08 15:00N 39°33' W 075°38'5 9.1
2017-Sep-08 14:30N 39°30' W 075°33'815.9
2017-Sep-08 14:00N 39°23' W 075°28'816.7
2017-Sep-08 13:30N 39°17' W 075°21'916.7
2017-Sep-08 12:58N 39°09' W 075°15'816.7
2017-Sep-08 12:29N 39°02' W 075°10'57 2.7
2017-Sep-07 14:59N 39°36' W 074°10'817.3
2017-Sep-07 14:30N 39°43' W 074°05'4816.0
2017-Sep-07 11:29N 40°31' W 074°02'613.3
2017-Sep-07 11:00N 40°38' W 074°03'5 9.5
2017-Sep-07 10:29N 40°43' W 074°02'0 0.0
2017-Sep-07 09:59N 40°43' W 074°02'0 0.0
2017-Sep-07 09:29N 40°43' W 074°02'0 0.0
2017-Sep-07 08:59N 40°43' W 074°02'0 0.0
2017-Sep-07 08:29N 40°43' W 074°02'0 0.0
2017-Sep-07 07:59N 40°43' W 074°02'0 0.0
2017-Sep-07 07:29N 40°43' W 074°02'0 0.0
2017-Sep-07 06:59N 40°43' W 074°02'0 0.0
2017-Sep-07 06:29N 40°43' W 074°02'0 0.0
2017-Sep-07 05:58N 40°43' W 074°02'0 0.0
2017-Sep-07 05:28N 40°43' W 074°02'0 0.0
2017-Sep-07 04:58N 40°43' W 074°02'0 0.0
2017-Sep-07 04:28N 40°43' W 074°02'0 0.0
2017-Sep-07 03:58N 40°43' W 074°02'0 0.0
2017-Sep-07 03:28N 40°43' W 074°02'0 0.0
2017-Sep-07 02:58N 40°43' W 074°02'0 0.0
2017-Sep-07 02:28N 40°43' W 074°02'0 0.0
2017-Sep-07 01:58N 40°43' W 074°02'0 0.0
2017-Sep-07 01:28N 40°43' W 074°02'0 0.0
2017-Sep-07 00:58N 40°43' W 074°02'0 0.0
2017-Sep-07 00:28N 40°43' W 074°02'0 0.0
2017-Sep-06 23:58N 40°43' W 074°02'0 0.0
2017-Sep-06 23:28N 40°43' W 074°02'0 0.0
2017-Sep-06 22:58N 40°43' W 074°02'0 0.0
2017-Sep-06 22:28N 40°43' W 074°02'0 0.0
2017-Sep-06 21:58N 40°43' W 074°02'0 0.0
2017-Sep-06 21:28N 40°43' W 074°02'0 0.0
2017-Sep-06 20:58N 40°43' W 074°02'0 0.0
2017-Sep-06 20:28N 40°43' W 074°02'0 0.0
2017-Sep-06 19:58N 40°43' W 074°02'0 0.0
2017-Sep-06 19:28N 40°43' W 074°02'0 0.0
2017-Sep-06 18:58N 40°43' W 074°02'0 0.0
2017-Sep-06 18:28N 40°43' W 074°02'0 0.0
2017-Sep-06 17:58N 40°43' W 074°02'0 0.1
2017-Sep-06 17:30N 40°43' W 074°02'3 6.4
2017-Sep-06 17:00N 40°43' W 073°58'67 2.4
2017-Sep-05 12:48N 41°11' W 072°38'516.2
2017-Sep-05 12:30N 41°12' W 072°31'816.7
2017-Sep-05 12:00N 41°14' W 072°21'  

Dump ship's entire track history